createdAt,value
2022-09-20T00:01:55.285Z,1.90
2022-09-20T00:04:22.044Z,2.10
2022-09-20T00:06:48.986Z,2.05
2022-09-20T00:11:57.091Z,2.08
2022-09-20T00:14:23.890Z,2.20
2022-09-20T00:16:52.570Z,1.80
2022-09-20T00:19:22.124Z,2.50
2022-09-20T00:21:49.567Z,3.50
2022-09-20T00:24:18.878Z,2.65
2022-09-20T00:26:45.765Z,2.60
2022-09-20T00:29:13.434Z,1.92
2022-09-20T00:31:43.118Z,1.90
2022-09-20T00:34:30.081Z,2.10
2022-09-20T00:37:00.671Z,1.85
2022-09-20T00:39:27.543Z,2.10
2022-09-20T00:41:54.807Z,2.30
2022-09-20T00:47:53.154Z,2.42
2022-09-20T00:50:26.876Z,2.30
2022-09-20T00:53:05.708Z,2.05
2022-09-20T00:55:47.504Z,2.30
2022-09-20T00:58:15.821Z,2.40
2022-09-20T01:00:48.374Z,2.10
2022-09-20T01:03:19.973Z,2.22
2022-09-20T01:05:47.041Z,2.00
2022-09-20T01:08:14.481Z,2.08
2022-09-20T01:10:41.599Z,2.10
2022-09-20T01:15:51.164Z,2.15
2022-09-20T01:18:20.562Z,2.47
2022-09-20T01:20:50.075Z,2.13
2022-09-20T01:23:32.296Z,2.03
2022-09-20T01:26:21.842Z,2.40
2022-09-20T01:28:52.647Z,2.35
2022-09-20T01:33:52.249Z,2.17
2022-09-20T01:36:27.517Z,2.20
2022-09-20T01:39:08.584Z,2.17
2022-09-20T01:41:47.797Z,2.38
2022-09-20T01:44:55.902Z,2.30
2022-09-20T01:47:31.165Z,2.70
2022-09-20T01:50:08.424Z,2.53
2022-09-20T01:52:41.973Z,2.30
2022-09-20T01:55:38.287Z,2.13
2022-09-20T01:58:41.610Z,2.00
2022-09-20T02:01:42.781Z,2.25
2022-09-20T02:07:18.481Z,2.40
2022-09-20T02:09:57.906Z,2.63
2022-09-20T02:12:40.757Z,2.40
2022-09-20T02:15:33.132Z,2.67
2022-09-20T02:18:03.307Z,2.40
2022-09-20T02:20:43.062Z,2.50
2022-09-20T02:23:23.309Z,2.33
2022-09-20T02:25:59.525Z,2.70
2022-09-20T02:35:11.398Z,2.80
2022-09-20T02:37:51.488Z,2.35
2022-09-20T02:40:57.824Z,2.70
2022-09-20T02:43:46.847Z,2.60
2022-09-20T02:46:41.516Z,2.42
2022-09-20T02:49:51.249Z,2.80
2022-09-20T02:52:36.213Z,2.60
2022-09-20T02:58:14.679Z,2.80
2022-09-20T03:01:01.648Z,2.70
2022-09-20T03:03:53.839Z,2.45
2022-09-20T03:06:35.913Z,2.67
2022-09-20T03:09:31.152Z,2.78
2022-09-20T03:12:24.251Z,2.58
2022-09-20T03:15:16.821Z,2.80
2022-09-20T03:18:02.303Z,3.00
2022-09-20T03:20:33.819Z,3.15
2022-09-20T03:23:07.392Z,3.10
2022-09-20T03:25:41.039Z,3.15
2022-09-20T03:28:52.990Z,3.40
2022-09-20T03:32:11.406Z,3.25
2022-09-20T03:34:57.801Z,2.85
2022-09-20T03:37:55.212Z,2.83
2022-09-20T03:40:28.376Z,2.95
2022-09-20T03:43:14.051Z,3.30
2022-09-20T03:46:20.308Z,3.00
2022-09-20T03:49:25.461Z,3.13
2022-09-20T03:52:12.571Z,3.15
2022-09-20T03:55:08.808Z,3.72
2022-09-20T03:57:58.863Z,3.30
2022-09-20T04:01:09.508Z,3.38
2022-09-20T04:03:47.983Z,3.53
2022-09-20T04:12:30.463Z,3.15
2022-09-20T04:18:32.857Z,3.50
2022-09-20T04:21:42.180Z,3.05
2022-09-20T04:24:12.411Z,3.33
2022-09-20T04:30:24.037Z,3.60
2022-09-20T04:33:22.158Z,3.60
2022-09-20T04:39:06.479Z,4.22
2022-09-20T04:51:30.637Z,4.30
2022-09-20T04:57:19.463Z,4.13
2022-09-20T05:00:30.541Z,4.38
2022-09-20T05:03:34.509Z,4.35
2022-09-20T05:06:22.787Z,4.90
2022-09-20T05:09:19.007Z,3.85
2022-09-20T05:12:01.696Z,4.00
2022-09-20T05:15:05.486Z,4.20
2022-09-20T05:20:11.954Z,4.05
2022-09-20T05:22:59.757Z,4.78
2022-09-20T05:25:49.455Z,5.97
2022-09-20T05:28:15.928Z,4.82
2022-09-20T05:30:47.390Z,4.13
2022-09-20T05:33:23.771Z,4.18
2022-09-20T05:36:16.876Z,4.95
2022-09-20T05:39:12.589Z,4.30
2022-09-20T05:42:03.379Z,3.53
2022-09-20T05:45:04.820Z,3.47
2022-09-20T05:47:44.768Z,3.80
2022-09-20T05:50:25.736Z,4.20
2022-09-20T05:53:04.411Z,3.80
2022-09-20T05:55:51.767Z,3.58
2022-09-20T05:58:29.764Z,3.80
2022-09-20T06:01:09.585Z,3.95
2022-09-20T06:03:49.065Z,4.10
2022-09-20T06:06:40.991Z,3.60
2022-09-20T06:09:26.705Z,3.70
2022-09-20T06:12:41.144Z,27.58
2022-09-20T06:15:19.729Z,3.90
2022-09-20T06:17:55.325Z,3.95
2022-09-20T06:20:43.012Z,3.63
2022-09-20T06:23:10.107Z,3.72
2022-09-20T06:25:45.201Z,3.70
2022-09-20T06:28:20.751Z,3.78
2022-09-20T06:30:52.837Z,4.20
2022-09-20T06:33:25.332Z,4.20
2022-09-20T06:36:20.465Z,4.13
2022-09-20T06:39:17.750Z,3.60
2022-09-20T06:41:44.998Z,4.22
2022-09-20T06:44:11.899Z,5.60
2022-09-20T06:46:39.305Z,3.75
2022-09-20T06:49:09.672Z,3.90
2022-09-20T06:51:38.939Z,3.90
2022-09-20T06:54:11.859Z,4.57
2022-09-20T06:56:38.421Z,4.10
2022-09-20T06:59:10.362Z,3.70
2022-09-20T07:01:37.772Z,3.92
2022-09-20T07:04:06.202Z,3.50
2022-09-20T07:06:35.119Z,3.80
2022-09-20T07:09:01.810Z,3.80
2022-09-20T07:11:28.521Z,3.75
2022-09-20T07:13:58.296Z,4.82
2022-09-20T07:16:26.486Z,4.13
2022-09-20T07:18:53.164Z,4.38
2022-09-20T07:21:21.310Z,4.47
2022-09-20T07:23:48.661Z,4.90
2022-09-20T07:26:26.939Z,5.35
2022-09-20T07:28:54.267Z,5.80
2022-09-20T07:31:26.435Z,6.82
2022-09-20T07:33:53.487Z,6.18
2022-09-20T07:36:20.517Z,5.60
2022-09-20T07:38:50.122Z,5.90
2022-09-20T07:41:20.544Z,6.55
2022-09-20T07:43:47.124Z,6.32
2022-09-20T07:46:14.079Z,5.97
2022-09-20T07:48:41.092Z,6.20
2022-09-20T07:51:11.358Z,6.68
2022-09-20T07:53:38.840Z,9.10
2022-09-20T07:56:12.964Z,5.28
2022-09-20T07:58:40.110Z,16.88
2022-09-20T08:01:13.436Z,4.70
2022-09-20T08:03:40.832Z,4.68
2022-09-20T08:06:15.144Z,4.70
2022-09-20T08:08:42.731Z,4.97
2022-09-20T08:11:15.727Z,3.90
2022-09-20T08:16:37.268Z,4.20
2022-09-20T08:19:04.365Z,4.25
2022-09-20T08:21:32.904Z,4.18
2022-09-20T08:24:00.881Z,4.18
2022-09-20T08:26:29.554Z,3.60
2022-09-20T08:28:59.096Z,4.15
2022-09-20T08:31:33.233Z,3.50
2022-09-20T08:34:21.560Z,3.80
2022-09-20T08:36:56.768Z,3.25
2022-09-20T08:42:39.096Z,3.10
2022-09-20T08:45:38.304Z,3.90
2022-09-20T08:48:14.410Z,3.40
2022-09-20T08:50:42.135Z,3.55
2022-09-20T08:53:14.918Z,3.72
2022-09-20T08:55:43.133Z,3.83
2022-09-20T08:58:12.327Z,3.13
2022-09-20T09:00:40.555Z,3.17
2022-09-20T09:03:13.424Z,2.90
2022-09-20T09:05:50.707Z,3.35
2022-09-20T09:08:21.274Z,3.28
2022-09-20T09:10:58.243Z,3.10
2022-09-20T09:13:46.295Z,3.15
2022-09-20T09:16:22.675Z,2.80
2022-09-20T09:18:52.298Z,2.58
2022-09-20T09:21:23.157Z,2.45
2022-09-20T09:26:40.877Z,2.00
2022-09-20T09:31:48.283Z,2.40
2022-09-20T09:34:35.480Z,3.00
2022-09-20T09:37:02.677Z,2.22
2022-09-20T09:39:34.616Z,2.50
2022-09-20T09:42:20.991Z,2.70
2022-09-20T09:44:50.587Z,2.22
2022-09-20T09:47:29.881Z,2.28
2022-09-20T09:50:05.031Z,2.22
2022-09-20T09:52:36.581Z,2.40
2022-09-20T09:55:05.794Z,2.40
2022-09-20T09:58:24.228Z,2.63
2022-09-20T10:00:53.876Z,2.88
2022-09-20T10:03:49.023Z,2.47
2022-09-20T10:06:23.085Z,2.90
2022-09-20T10:09:01.261Z,3.35
2022-09-20T10:12:04.656Z,2.67
2022-09-20T10:14:58.653Z,3.55
2022-09-20T10:20:53.425Z,2.58
2022-09-20T10:26:38.949Z,2.38
2022-09-20T10:29:24.453Z,2.17
2022-09-20T10:32:15.247Z,1.95
2022-09-20T10:35:00.160Z,2.30
2022-09-20T10:37:55.533Z,2.20
2022-09-20T10:40:53.193Z,2.25
2022-09-20T10:44:04.257Z,2.20
2022-09-20T10:49:57.873Z,2.10
2022-09-20T10:52:24.468Z,2.08
2022-09-20T10:55:19.023Z,2.30
2022-09-20T10:57:48.947Z,2.13
2022-09-20T11:00:50.507Z,1.80
2022-09-20T11:03:53.130Z,1.75
2022-09-20T11:06:37.960Z,1.40
2022-09-20T11:09:15.584Z,1.80
2022-09-20T11:11:56.530Z,1.95
2022-09-20T11:14:36.569Z,1.75
2022-09-20T11:17:28.648Z,1.70
2022-09-20T11:20:07.538Z,2.13
2022-09-20T11:22:48.253Z,2.05
2022-09-20T11:26:03.581Z,1.80
2022-09-20T11:28:36.949Z,2.08
2022-09-20T11:31:11.288Z,2.30
2022-09-20T11:33:47.636Z,2.25
2022-09-20T11:36:21.358Z,1.60
2022-09-20T11:39:11.051Z,1.20
2022-09-20T11:41:38.402Z,1.40
2022-09-20T11:44:12.726Z,1.70
2022-09-20T11:47:06.434Z,1.40
2022-09-20T11:50:07.148Z,1.60
2022-09-20T11:52:53.340Z,1.33
2022-09-20T11:55:50.379Z,1.70
2022-09-20T11:58:21.061Z,1.60
2022-09-20T12:01:00.548Z,1.63
2022-09-20T12:03:47.398Z,1.30
2022-09-20T12:09:50.293Z,1.20
2022-09-20T12:13:07.428Z,1.80
2022-09-20T12:15:44.555Z,1.10
2022-09-20T12:18:53.219Z,1.00
2022-09-20T12:21:29.519Z,1.25
2022-09-20T12:24:29.347Z,1.20
2022-09-20T12:30:38.260Z,0.88
2022-09-20T12:36:47.457Z,1.00
2022-09-20T12:46:22.791Z,1.45
2022-09-20T12:48:52.737Z,1.33
2022-09-20T12:51:48.747Z,1.40
2022-09-20T12:54:23.712Z,1.17
2022-09-20T12:56:55.129Z,1.00
2022-09-20T12:59:41.813Z,1.60
2022-09-20T13:02:47.623Z,1.55
2022-09-20T13:05:45.862Z,1.67
2022-09-20T13:08:20.456Z,1.58
2022-09-20T13:11:13.502Z,1.75
2022-09-20T13:13:44.925Z,1.90
2022-09-20T13:16:37.456Z,1.23
2022-09-20T13:22:01.327Z,1.50
2022-09-20T13:24:33.409Z,1.20
2022-09-20T13:27:25.353Z,1.30
2022-09-20T13:33:28.292Z,1.45
2022-09-20T13:35:59.797Z,1.30
2022-09-20T13:38:34.951Z,1.35
2022-09-20T13:41:39.673Z,1.45
2022-09-20T13:44:25.795Z,3.00
2022-09-20T13:46:53.056Z,1.48
2022-09-20T13:49:24.814Z,1.20
2022-09-20T13:52:02.021Z,1.33
2022-09-20T13:57:17.753Z,1.20
2022-09-20T13:59:47.971Z,1.13
2022-09-20T14:02:31.741Z,1.08
2022-09-20T14:11:33.340Z,1.15
2022-09-20T14:14:05.813Z,2.00
2022-09-20T14:16:44.434Z,0.90
2022-09-20T14:19:21.315Z,0.80
2022-09-20T14:22:24.767Z,0.80
2022-09-20T14:28:29.210Z,1.60
2022-09-20T14:31:25.781Z,0.80
2022-09-20T14:34:02.696Z,0.77
2022-09-20T14:36:46.197Z,0.77
2022-09-20T14:39:19.339Z,0.90
2022-09-20T14:44:43.805Z,1.00
2022-09-20T14:47:15.633Z,1.05
2022-09-20T14:49:45.704Z,0.57
2022-09-20T14:52:54.682Z,0.60
2022-09-20T14:59:03.011Z,0.50
2022-09-20T15:05:03.510Z,1.00
2022-09-20T15:10:34.215Z,2.40
2022-09-20T15:13:01.372Z,1.40
2022-09-20T15:15:35.144Z,1.60
2022-09-20T15:18:03.810Z,1.30
2022-09-20T15:25:56.483Z,1.45
2022-09-20T15:28:33.241Z,3.28
2022-09-20T15:31:00.803Z,1.30
2022-09-20T15:33:40.520Z,1.30
2022-09-20T15:39:00.240Z,0.90
2022-09-20T15:41:31.548Z,0.80
2022-09-20T15:43:59.433Z,1.00
2022-09-20T15:46:31.743Z,1.10
2022-09-20T15:49:01.080Z,1.27
2022-09-20T15:54:16.123Z,1.58
2022-09-20T16:00:02.342Z,1.20
2022-09-20T16:02:29.955Z,1.13
2022-09-20T16:05:02.205Z,2.00
2022-09-20T16:07:35.097Z,1.50
2022-09-20T16:10:02.517Z,1.42
2022-09-20T16:12:42.948Z,2.13
2022-09-20T16:15:10.430Z,0.93
2022-09-20T16:18:03.177Z,1.27
2022-09-20T16:23:26.190Z,1.20
2022-09-20T16:25:55.909Z,1.27
2022-09-20T16:31:49.309Z,1.13
2022-09-20T16:37:46.900Z,2.10
2022-09-20T16:40:14.346Z,1.25
2022-09-20T16:42:56.658Z,1.75
2022-09-20T16:45:27.635Z,1.73
2022-09-20T16:48:04.333Z,4.88
2022-09-20T16:50:33.235Z,0.93
2022-09-20T16:53:02.330Z,0.90
2022-09-20T16:55:29.084Z,1.20
2022-09-20T16:57:56.623Z,1.17
2022-09-20T17:00:23.357Z,0.90
2022-09-20T17:02:51.670Z,1.10
2022-09-20T17:05:19.831Z,1.00
2022-09-20T17:07:47.262Z,0.90
2022-09-20T17:10:16.154Z,1.10
2022-09-20T17:12:55.622Z,1.60
2022-09-20T17:15:25.213Z,4.97
2022-09-20T17:17:55.970Z,2.60
2022-09-20T17:20:23.802Z,2.70
2022-09-20T17:22:57.663Z,2.53
2022-09-20T17:25:25.788Z,8.68
2022-09-20T17:27:53.347Z,2.35
2022-09-20T17:30:19.965Z,3.28
2022-09-20T17:32:51.373Z,1.73
2022-09-20T17:35:18.894Z,1.50
2022-09-20T17:37:46.047Z,1.80
2022-09-20T17:40:13.402Z,2.72
2022-09-20T17:42:40.634Z,1.30
2022-09-20T17:45:07.895Z,1.60
2022-09-20T17:47:34.680Z,2.58
2022-09-20T17:50:01.731Z,2.40
2022-09-20T17:52:28.641Z,2.83
2022-09-20T17:54:55.549Z,2.60
2022-09-20T17:57:22.940Z,2.60
2022-09-20T17:59:49.967Z,2.40
2022-09-20T18:02:20.953Z,2.92
2022-09-20T18:07:16.587Z,3.83
2022-09-20T18:12:31.698Z,2.47
2022-09-20T18:14:58.796Z,3.22
2022-09-20T18:17:25.671Z,2.67
2022-09-20T18:19:52.697Z,2.80
2022-09-20T18:22:20.707Z,2.90
2022-09-20T18:24:51.002Z,2.67
2022-09-20T18:27:17.956Z,2.55
2022-09-20T18:29:56.884Z,2.35
2022-09-20T18:32:26.431Z,2.25
2022-09-20T18:34:55.968Z,2.10
2022-09-20T18:37:22.590Z,6.57
2022-09-20T18:39:49.726Z,3.78
2022-09-20T18:42:19.126Z,3.65
2022-09-20T18:44:45.943Z,3.42
2022-09-20T18:47:12.580Z,3.35
2022-09-20T18:49:39.146Z,3.00
2022-09-20T18:52:07.700Z,2.85
2022-09-20T18:54:34.141Z,2.60
2022-09-20T18:57:00.998Z,5.53
2022-09-20T18:59:28.310Z,4.88
2022-09-20T19:02:14.547Z,5.05
2022-09-20T19:04:57.017Z,6.93
2022-09-20T19:07:51.683Z,8.25
2022-09-20T19:10:34.836Z,7.55
2022-09-20T19:13:42.668Z,8.85
2022-09-20T19:16:13.610Z,8.23
2022-09-20T19:19:12.915Z,13.68
2022-09-20T19:22:08.337Z,6.65
2022-09-20T19:25:01.579Z,12.50
2022-09-20T19:27:29.058Z,8.02
2022-09-20T19:29:56.660Z,7.75
2022-09-20T19:32:26.147Z,9.90
2022-09-20T19:34:56.973Z,8.32
2022-09-20T19:37:37.334Z,8.80
2022-09-20T19:40:03.937Z,9.73
2022-09-20T19:43:03.279Z,10.27
2022-09-20T19:45:45.090Z,11.98
2022-09-20T19:48:42.551Z,11.10
2022-09-20T19:51:14.078Z,6.70
2022-09-20T19:53:41.239Z,4.47
2022-09-20T19:56:27.832Z,6.03
2022-09-20T19:58:56.278Z,9.10
2022-09-20T20:01:30.137Z,8.80
2022-09-20T20:03:57.155Z,9.38
2022-09-20T20:06:23.837Z,7.88
2022-09-20T20:09:04.156Z,7.40
2022-09-20T20:14:48.491Z,8.02
2022-09-20T20:17:21.274Z,5.18
2022-09-20T20:20:10.349Z,5.55
2022-09-20T20:23:11.222Z,4.97
2022-09-20T20:25:48.795Z,5.53
2022-09-20T20:28:15.609Z,5.32
2022-09-20T20:30:43.013Z,6.20
2022-09-20T20:33:16.238Z,7.30
2022-09-20T20:35:42.873Z,6.70
2022-09-20T20:38:10.597Z,7.00
2022-09-20T20:40:38.032Z,6.22
2022-09-20T20:43:06.213Z,8.85
2022-09-20T20:45:33.067Z,9.05
2022-09-20T20:47:59.827Z,7.63
2022-09-20T20:50:27.925Z,9.80
2022-09-20T20:52:55.628Z,14.88
2022-09-20T20:55:23.009Z,9.00
2022-09-20T20:57:58.260Z,7.15
2022-09-20T21:00:26.113Z,7.57
2022-09-20T21:03:02.791Z,6.53
2022-09-20T21:05:29.605Z,6.30
2022-09-20T21:07:57.726Z,5.28
2022-09-20T21:10:24.421Z,5.55
2022-09-20T21:12:54.588Z,4.80
2022-09-20T21:15:21.486Z,4.35
2022-09-20T21:17:55.048Z,4.90
2022-09-20T21:20:24.546Z,4.85
2022-09-20T21:22:51.306Z,4.93
2022-09-20T21:25:17.920Z,5.22
2022-09-20T21:27:44.676Z,5.22
2022-09-20T21:30:11.822Z,6.63
2022-09-20T21:32:38.669Z,6.57
2022-09-20T21:35:08.583Z,6.00
2022-09-20T21:37:35.216Z,5.63
2022-09-20T21:40:02.412Z,6.72
2022-09-20T21:42:29.513Z,6.05
2022-09-20T21:44:56.916Z,7.78
2022-09-20T21:47:23.547Z,6.65
2022-09-20T21:49:50.005Z,6.60
2022-09-20T21:52:16.472Z,6.32
2022-09-20T21:54:43.098Z,6.30
2022-09-20T21:57:13.801Z,6.30
2022-09-20T21:59:40.783Z,6.40
2022-09-20T22:02:07.475Z,5.68
2022-09-20T22:04:34.188Z,6.00
2022-09-20T22:07:02.562Z,23.02
2022-09-20T22:09:29.178Z,7.18
2022-09-20T22:11:56.030Z,4.93
2022-09-20T22:14:22.545Z,5.90
2022-09-20T22:16:49.494Z,4.50
2022-09-20T22:19:17.667Z,4.43
2022-09-20T22:21:46.683Z,5.20
2022-09-20T22:24:14.806Z,7.85
2022-09-20T22:26:44.312Z,6.22
2022-09-20T22:29:11.194Z,6.03
2022-09-20T22:31:45.537Z,5.03
2022-09-20T22:34:21.438Z,7.07
2022-09-20T22:36:48.367Z,4.85
2022-09-20T22:39:15.384Z,5.72
2022-09-20T22:41:42.889Z,5.28
2022-09-20T22:44:10.456Z,5.28
2022-09-20T22:46:38.017Z,4.82
2022-09-20T22:49:05.847Z,5.15
2022-09-20T22:51:33.471Z,4.00
2022-09-20T22:54:04.481Z,4.20
2022-09-20T22:56:31.741Z,3.80
2022-09-20T22:59:00.567Z,4.22
2022-09-20T23:01:32.680Z,4.20
2022-09-20T23:04:00.911Z,3.78
2022-09-20T23:06:30.277Z,3.97
2022-09-20T23:09:01.538Z,3.95
2022-09-20T23:11:28.756Z,4.30
2022-09-20T23:14:00.420Z,6.63
2022-09-20T23:16:29.118Z,4.60
2022-09-20T23:18:57.277Z,5.05
2022-09-20T23:21:24.445Z,5.03
2022-09-20T23:24:00.066Z,4.63
2022-09-20T23:26:29.784Z,4.70
2022-09-20T23:29:02.543Z,5.13
2022-09-20T23:31:30.534Z,5.28
2022-09-20T23:34:02.412Z,5.00
2022-09-20T23:36:31.423Z,4.63
2022-09-20T23:38:58.281Z,4.75
2022-09-20T23:41:26.584Z,4.65
2022-09-20T23:43:53.220Z,4.47
2022-09-20T23:46:22.503Z,3.95
2022-09-20T23:48:50.607Z,4.80
2022-09-20T23:51:20.029Z,4.15
2022-09-20T23:53:46.552Z,4.03
2022-09-20T23:56:13.784Z,4.38
2022-09-20T23:58:42.578Z,4.03
